Time;durP1;ratioP1;P1;durP2;ratioP2;P2;SDS_P1;SDS_P2;PMS_P1;PMS_P2;Temp;Humidity;BMP_temperature;BMP_pressure;BME280_temperature;BME280_humidity;BME280_pressure;Samples;Min_cycle;Max_cycle;Signal;HPM_P1;HPM_P2
2023/11/22 00:02:16;;;;;;;;;;;;;;;16.89;44.95;100257.50;5106648;28;1037;-56
2023/11/22 00:04:41;;;;;;;;;;;;;;;17.24;46.49;100246.44;5111341;28;1149;-56
2023/11/22 00:07:07;;;;;;;;;;;;;;;17.28;46.48;100250.25;5103168;28;1113;-55
2023/11/22 00:09:32;;;;;;;;;;;;;;;18.31;46.11;100243.47;5109678;28;1082;-55
2023/11/22 00:11:59;;;;;;;;;;;;;;;17.68;46.65;100241.81;5120258;28;1089;-56
2023/11/22 00:14:25;;;;;;;;;;;;;;;17.26;46.05;100234.06;5110840;28;1196;-54
2023/11/22 00:16:51;;;;;;;;;;;;;;;17.09;45.14;100234.50;5116137;28;1152;-57
2023/11/22 00:19:18;;;;;;;;;;;;;;;17.57;46.85;100244.72;5116242;28;1979;-55
2023/11/22 00:21:44;;;;;;;;;;;;;;;17.35;46.80;100234.25;5117367;28;1148;-55
2023/11/22 00:24:09;;;;;;;;;;;;;;;17.07;46.06;100235.91;5099697;28;950;-53
2023/11/22 00:26:35;;;;;;;;;;;;;;;16.87;45.21;100226.72;5112974;28;1109;-55
2023/11/22 00:29:01;;;;;;;;;;;;;;;16.85;44.09;100226.19;5109228;28;1047;-57
2023/11/22 00:31:27;;;;;;;;;;;;;;;16.75;43.80;100218.84;5095780;28;1245;-56
2023/11/22 00:33:52;;;;;;;;;;;;;;;17.70;46.25;100217.63;5091162;28;1447;-56
2023/11/22 00:36:18;;;;;;;;;;;;;;;17.12;46.09;100215.81;5116975;28;1098;-58
2023/11/22 00:38:43;;;;;;;;;;;;;;;16.84;45.64;100210.00;5109090;28;1978;-58
2023/11/22 00:41:09;;;;;;;;;;;;;;;16.82;45.14;100217.72;5106366;28;1188;-58
2023/11/22 00:43:35;;;;;;;;;;;;;;;17.19;46.60;100211.59;5087479;28;887;-56
2023/11/22 00:46:01;;;;;;;;;;;;;;;16.86;45.73;100213.28;5096265;28;1177;-58
2023/11/22 00:48:27;;;;;;;;;;;;;;;16.74;44.79;100208.97;5119505;28;1080;-58
2023/11/22 00:50:52;;;;;;;;;;;;;;;17.47;45.93;100216.50;5085948;28;1106;-57
2023/11/22 00:53:18;;;;;;;;;;;;;;;17.08;46.45;100213.66;5099470;28;1094;-56
2023/11/22 00:55:43;;;;;;;;;;;;;;;16.90;45.40;100203.38;5100759;28;1030;-55
2023/11/22 00:58:09;;;;;;;;;;;;;;;16.69;44.61;100208.19;5092742;28;1976;-53
2023/11/22 01:00:35;;;;;;;;;;;;;;;17.56;46.19;100199.06;5114293;28;1144;-52
2023/11/22 01:03:00;;;;;;;;;;;;;;;17.08;45.98;100210.91;5119443;28;1069;-56
2023/11/22 01:05:26;;;;;;;;;;;;;;;16.83;45.42;100206.44;5103838;28;1161;-56
2023/11/22 01:07:51;;;;;;;;;;;;;;;17.60;46.48;100210.31;5095499;28;2388;-54
2023/11/22 01:10:17;;;;;;;;;;;;;;;17.03;46.34;100207.38;5087700;28;1260;-55
2023/11/22 01:12:42;;;;;;;;;;;;;;;16.81;45.62;100200.41;5119232;28;1089;-55
2023/11/22 01:15:08;;;;;;;;;;;;;;;16.73;44.43;100203.78;5105645;28;1133;-56
2023/11/22 01:17:35;;;;;;;;;;;;;;;17.41;46.08;100207.50;5119273;28;1097;-55
2023/11/22 01:20:01;;;;;;;;;;;;;;;16.89;46.09;100197.06;5118023;28;1916;-54
2023/11/22 01:22:27;;;;;;;;;;;;;;;16.77;44.94;100200.19;5119036;28;1164;-53
2023/11/22 01:24:52;;;;;;;;;;;;;;;17.39;46.24;100212.47;5118194;28;1089;-53
2023/11/22 01:27:18;;;;;;;;;;;;;;;17.01;46.28;100198.59;5119209;28;1168;-52
2023/11/22 01:29:43;;;;;;;;;;;;;;;16.79;45.37;100197.16;5105269;28;1157;-53
2023/11/22 01:32:09;;;;;;;;;;;;;;;17.05;45.91;100188.66;5110934;28;1026;-55
2023/11/22 01:34:35;;;;;;;;;;;;;;;16.97;46.20;100187.41;5119019;28;1057;-54
2023/11/22 01:37:00;;;;;;;;;;;;;;;16.80;45.42;100179.53;5100335;28;1291;-53
2023/11/22 01:39:26;;;;;;;;;;;;;;;17.24;46.12;100177.75;5085216;28;1974;-52
2023/11/22 01:41:52;;;;;;;;;;;;;;;17.07;46.61;100181.78;5098714;28;1034;-53
2023/11/22 01:44:18;;;;;;;;;;;;;;;16.90;45.65;100178.66;5081697;28;1513;-56
2023/11/22 01:46:44;;;;;;;;;;;;;;;16.72;44.77;100175.50;5105943;28;1098;-54
2023/11/22 01:49:10;;;;;;;;;;;;;;;16.67;44.05;100178.31;5103975;28;1188;-56
2023/11/22 01:51:35;;;;;;;;;;;;;;;17.42;46.12;100174.22;5106468;28;1142;-57
2023/11/22 01:54:01;;;;;;;;;;;;;;;16.96;46.38;100179.41;5085344;28;1236;-57
2023/11/22 01:56:27;;;;;;;;;;;;;;;17.24;46.55;100164.03;5096093;28;1102;-57
2023/11/22 01:58:54;;;;;;;;;;;;;;;17.72;46.11;100174.13;5099755;28;1901;-56
2023/11/22 02:01:20;;;;;;;;;;;;;;;17.15;46.01;100169.31;5100063;28;1094;-53
2023/11/22 02:03:52;;;;;;;;;;;;;;;16.93;45.15;100169.84;5086046;28;1136;-58
2023/11/22 02:06:17;;;;;;;;;;;;;;;16.83;44.77;100172.66;5118283;28;1072;-56
2023/11/22 02:08:43;;;;;;;;;;;;;;;17.28;46.48;100165.88;5079961;28;1233;-58
2023/11/22 02:11:09;;;;;;;;;;;;;;;16.95;46.06;100166.81;5109140;28;1104;-54
2023/11/22 02:13:35;;;;;;;;;;;;;;;16.76;44.88;100173.84;5097713;28;1128;-53
2023/11/22 02:16:01;;;;;;;;;;;;;;;17.24;46.27;100162.09;5079677;28;1031;-57
2023/11/22 02:18:27;;;;;;;;;;;;;;;17.05;46.01;100161.22;5110687;28;1898;-55
2023/11/22 02:20:52;;;;;;;;;;;;;;;16.70;45.80;100158.50;5098222;28;1114;-56
2023/11/22 02:23:18;;;;;;;;;;;;;;;16.63;44.69;100152.53;5099528;28;1164;-57
2023/11/22 02:25:43;;;;;;;;;;;;;;;17.21;46.00;100154.44;5118131;28;1065;-56
2023/11/22 02:28:09;;;;;;;;;;;;;;;17.09;46.39;100156.75;5103196;28;1053;-56
2023/11/22 02:30:35;;;;;;;;;;;;;;;16.76;45.91;100156.56;5108796;28;1125;-58
2023/11/22 02:33:00;;;;;;;;;;;;;;;17.16;46.25;100154.47;5114138;28;874;-58
2023/11/22 02:35:26;;;;;;;;;;;;;;;17.15;46.47;100152.03;5079232;28;1165;-58
2023/11/22 02:37:52;;;;;;;;;;;;;;;16.85;45.71;100148.50;5112493;28;1133;-58
2023/11/22 02:40:21;;;;;;;;;;;;;;;17.32;46.26;100144.16;5117553;28;1994;-55
2023/11/22 02:42:47;;;;;;;;;;;;;;;17.23;46.62;100143.16;5096856;28;1132;-58
2023/11/22 02:45:13;;;;;;;;;;;;;;;16.96;45.89;100147.31;5087355;28;1145;-59
2023/11/22 02:47:39;;;;;;;;;;;;;;;17.53;46.44;100150.19;5114955;28;1203;-55
2023/11/22 02:50:05;;;;;;;;;;;;;;;17.23;46.33;100146.69;5087364;28;1205;-55
2023/11/22 02:52:31;;;;;;;;;;;;;;;16.97;45.74;100156.34;5103697;28;1272;-59
2023/11/22 02:54:56;;;;;;;;;;;;;;;16.86;44.68;100163.88;5098117;28;1545;-57
2023/11/22 02:57:22;;;;;;;;;;;;;;;16.96;45.39;100152.78;5092534;28;1574;-57
2023/11/22 02:59:47;;;;;;;;;;;;;;;17.19;46.19;100150.34;5105013;28;1901;-57
2023/11/22 03:02:14;;;;;;;;;;;;;;;16.90;45.44;100165.75;5098361;28;2113;-57
2023/11/22 03:04:40;;;;;;;;;;;;;;;16.70;44.86;100155.75;5108570;28;1217;-57
2023/11/22 03:07:08;;;;;;;;;;;;;;;17.07;45.81;100156.25;5079542;28;1200;-57
2023/11/22 03:09:33;;;;;;;;;;;;;;;17.18;46.25;100156.94;5106602;28;1141;-58
2023/11/22 03:12:02;;;;;;;;;;;;;;;16.84;45.77;100163.31;5116638;28;1081;-55
2023/11/22 03:14:29;;;;;;;;;;;;;;;16.79;45.20;100171.59;5107584;28;1165;-56
2023/11/22 03:16:54;;;;;;;;;;;;;;;17.32;46.09;100166.13;5099099;28;1499;-56
2023/11/22 03:19:20;;;;;;;;;;;;;;;16.88;45.74;100172.63;5114083;28;1905;-54
2023/11/22 03:21:45;;;;;;;;;;;;;;;16.72;45.06;100172.78;5096322;28;1278;-57
2023/11/22 03:24:11;;;;;;;;;;;;;;;17.38;46.04;100164.94;5096750;28;1102;-58
2023/11/22 03:26:37;;;;;;;;;;;;;;;16.88;45.76;100178.94;5098848;28;1006;-58
2023/11/22 03:29:02;;;;;;;;;;;;;;;16.89;46.11;100177.03;5106271;28;1124;-57
2023/11/22 03:31:28;;;;;;;;;;;;;;;17.17;46.21;100180.03;5112356;28;1206;-58
2023/11/22 03:33:54;;;;;;;;;;;;;;;16.85;45.76;100182.25;5107484;28;1149;-58
2023/11/22 03:36:20;;;;;;;;;;;;;;;16.69;44.75;100173.34;5096586;28;1094;-58
2023/11/22 03:38:45;;;;;;;;;;;;;;;16.61;44.15;100176.72;5105699;28;1889;-57
2023/11/22 03:41:12;;;;;;;;;;;;;;;17.34;46.05;100169.38;5095083;28;1145;-55
2023/11/22 03:43:37;;;;;;;;;;;;;;;16.98;45.97;100172.53;5099707;28;1152;-53
2023/11/22 03:46:03;;;;;;;;;;;;;;;16.75;45.56;100177.69;5103411;28;1177;-56
2023/11/22 03:48:28;;;;;;;;;;;;;;;16.64;44.71;100172.59;5116199;28;1072;-56
2023/11/22 03:50:54;;;;;;;;;;;;;;;17.21;46.03;100176.41;5103117;28;1197;-54
2023/11/22 03:53:21;;;;;;;;;;;;;;;16.84;45.95;100171.56;5116142;28;1174;-56
2023/11/22 03:55:47;;;;;;;;;;;;;;;17.50;46.00;100172.78;5114622;28;1044;-55
2023/11/22 03:58:13;;;;;;;;;;;;;;;17.71;46.48;100178.81;5116537;28;1972;-58
2023/11/22 04:00:38;;;;;;;;;;;;;;;17.20;46.29;100179.47;5115793;28;1085;-59
2023/11/22 04:03:04;;;;;;;;;;;;;;;16.94;45.65;100187.94;5116847;28;1061;-59
2023/11/22 04:05:29;;;;;;;;;;;;;;;16.84;44.54;100177.06;5115775;28;1069;-59
2023/11/22 04:07:56;;;;;;;;;;;;;;;17.20;46.08;100176.72;5111945;28;1081;-59
2023/11/22 04:10:22;;;;;;;;;;;;;;;17.45;46.80;100175.59;5109404;28;1200;-58
2023/11/22 04:12:47;;;;;;;;;;;;;;;17.16;46.94;100179.22;5105713;28;1113;-56
2023/11/22 04:15:13;;;;;;;;;;;;;;;18.33;46.09;100177.94;5116141;28;1101;-57
2023/11/22 04:17:40;;;;;;;;;;;;;;;17.60;46.82;100177.31;5107061;28;1042;-56
2023/11/22 04:20:09;;;;;;;;;;;;;;;17.27;45.99;100174.41;5110712;28;1976;-59
2023/11/22 04:22:34;;;;;;;;;;;;;;;17.01;45.21;100182.97;5105562;28;1153;-58
2023/11/22 04:25:01;;;;;;;;;;;;;;;16.88;44.41;100191.84;5109392;28;1046;-58
2023/11/22 04:27:26;;;;;;;;;;;;;;;17.01;45.15;100193.94;5096075;28;1054;-59
2023/11/22 04:29:52;;;;;;;;;;;;;;;17.44;46.87;100190.44;5112887;28;1094;-58
2023/11/22 04:32:17;;;;;;;;;;;;;;;17.00;46.25;100200.53;5110090;28;999;-58
2023/11/22 04:34:43;;;;;;;;;;;;;;;17.96;46.75;100196.09;5112706;28;1148;-56
2023/11/22 04:37:08;;;;;;;;;;;;;;;17.45;47.13;100201.13;5116041;28;1061;-56
2023/11/22 04:39:34;;;;;;;;;;;;;;;17.18;45.86;100198.16;5102641;28;1917;-56
2023/11/22 04:41:59;;;;;;;;;;;;;;;17.27;46.97;100199.16;5118662;28;1123;-56
2023/11/22 04:44:25;;;;;;;;;;;;;;;17.37;46.83;100185.28;5114126;28;1147;-56
2023/11/22 04:46:51;;;;;;;;;;;;;;;17.04;45.96;100190.63;5111027;28;1177;-56
2023/11/22 04:49:17;;;;;;;;;;;;;;;16.90;44.97;100197.88;5101297;28;1006;-56
2023/11/22 04:51:44;;;;;;;;;;;;;;;17.15;45.75;100205.03;5119732;28;1144;-60
2023/11/22 04:54:09;;;;;;;;;;;;;;;17.41;46.65;100202.81;5103681;28;1122;-56
2023/11/22 04:56:35;;;;;;;;;;;;;;;17.00;46.23;100211.53;5100588;28;1546;-57
2023/11/22 05:07:24;;;;;;;;;;;;;;;16.83;45.35;100219.34;5076096;28;1646;-54
2023/11/22 05:09:50;;;;;;;;;;;;;;;16.92;44.79;100217.66;5052871;28;855;-46
2023/11/22 05:12:15;;;;;;;;;;;;;;;16.92;45.71;100217.66;5052787;28;1141;-52
2023/11/22 05:14:43;;;;;;;;;;;;;;;17.26;47.04;100219.50;5053840;28;1071;-54
2023/11/22 05:17:09;;;;;;;;;;;;;;;16.89;46.27;100215.47;5056879;28;1071;-52
2023/11/22 05:19:34;;;;;;;;;;;;;;;16.73;45.32;100223.84;5073794;28;1057;-50
2023/11/22 05:22:00;;;;;;;;;;;;;;;17.44;46.63;100234.41;5049226;28;1205;-50
2023/11/22 05:24:25;;;;;;;;;;;;;;;17.02;46.63;100236.75;5072801;28;1003;-48
2023/11/22 05:26:51;;;;;;;;;;;;;;;16.72;45.63;100252.38;5060094;28;1987;-52
2023/11/22 05:29:17;;;;;;;;;;;;;;;16.73;45.29;100251.28;5062360;28;1014;-51
2023/11/22 05:31:42;;;;;;;;;;;;;;;16.99;45.57;100253.81;5070244;28;1074;-51
2023/11/22 05:34:08;;;;;;;;;;;;;;;16.55;46.73;100258.28;5049747;28;1200;-49
2023/11/22 05:36:33;;;;;;;;;;;;;;;16.39;47.11;100265.78;5054266;28;982;-49
2023/11/22 05:38:59;;;;;;;;;;;;;;;17.54;44.87;100266.47;5047367;28;1079;-50
2023/11/22 05:41:27;;;;;;;;;;;;;;;16.86;46.51;100257.22;5045701;28;1153;-48
2023/11/22 05:43:53;;;;;;;;;;;;;;;16.65;47.22;100273.88;5060504;28;1015;-46
2023/11/22 05:46:22;;;;;;;;;;;;;;;17.60;44.89;100270.81;5054429;28;1910;-51
2023/11/22 05:48:51;;;;;;;;;;;;;;;16.87;46.52;100269.84;5042078;28;1103;-50
2023/11/22 05:51:16;;;;;;;;;;;;;;;16.55;47.74;100274.75;5047690;28;1035;-44
2023/11/22 05:53:42;;;;;;;;;;;;;;;17.19;46.33;100288.50;5049714;28;1056;-49
2023/11/22 05:56:10;;;;;;;;;;;;;;;17.07;46.69;100288.09;5052172;28;1336;-51
2023/11/22 05:58:38;;;;;;;;;;;;;;;16.61;47.93;100289.25;5046240;28;1027;-46
2023/11/22 06:01:07;;;;;;;;;;;;;;;16.78;47.63;100302.59;5040857;28;1208;-46
2023/11/22 06:03:33;;;;;;;;;;;;;;;17.41;45.84;100299.03;5052380;28;1067;-48
2023/11/22 06:05:59;;;;;;;;;;;;;;;16.72;47.80;100307.28;5060545;28;1917;-47
2023/11/22 06:08:24;;;;;;;;;;;;;;;16.40;48.55;100322.31;5071546;28;1046;-52
2023/11/22 06:10:51;;;;;;;;;;;;;;;16.29;48.92;100325.41;5065340;28;1126;-42
2023/11/22 06:13:17;;;;;;;;;;;;;;;17.48;46.20;100328.09;5065818;28;1147;-45
2023/11/22 06:15:42;;;;;;;;;;;;;;;16.82;47.66;100338.53;5084730;28;1070;-44
2023/11/22 06:18:08;;;;;;;;;;;;;;;16.43;48.45;100335.47;5042069;28;1155;-46
2023/11/22 06:20:34;;;;;;;;;;;;;;;17.64;45.88;100343.31;5058737;28;1162;-44
2023/11/22 06:22:59;;;;;;;;;;;;;;;17.18;46.87;100341.00;5058207;28;1215;-46
2023/11/22 06:25:25;;;;;;;;;;;;;;;16.69;48.19;100339.97;5047267;28;1987;-51
2023/11/22 06:27:50;;;;;;;;;;;;;;;16.47;48.90;100343.16;5057221;28;885;-42
2023/11/22 06:30:16;;;;;;;;;;;;;;;17.70;46.06;100342.16;5055687;28;1127;-44
2023/11/22 06:32:44;;;;;;;;;;;;;;;17.07;47.20;100338.34;5068424;28;1126;-48
2023/11/22 06:35:11;;;;;;;;;;;;;;;16.67;48.52;100343.00;5055727;28;1373;-46
2023/11/22 06:37:37;;;;;;;;;;;;;;;16.42;49.14;100344.00;5037396;28;933;-44
2023/11/22 06:40:02;;;;;;;;;;;;;;;17.35;46.74;100346.91;5073889;28;1138;-44
2023/11/22 06:42:28;;;;;;;;;;;;;;;17.24;46.91;100359.09;5067799;28;1352;-45
2023/11/22 06:44:53;;;;;;;;;;;;;;;16.74;48.17;100353.69;5056428;28;1151;-44
2023/11/22 06:47:19;;;;;;;;;;;;;;;16.55;48.97;100359.00;5057430;28;1977;-44
2023/11/22 06:49:45;;;;;;;;;;;;;;;17.67;46.17;100359.25;5058659;28;1113;-45
2023/11/22 06:52:10;;;;;;;;;;;;;;;16.95;47.78;100353.56;5069506;28;1190;-44
2023/11/22 06:54:36;;;;;;;;;;;;;;;16.57;48.96;100357.63;5051672;28;1059;-49
2023/11/22 06:57:02;;;;;;;;;;;;;;;17.23;47.42;100357.47;5050780;28;1106;-48
2023/11/22 06:59:28;;;;;;;;;;;;;;;17.08;47.48;100366.63;5045006;28;1226;-46
2023/11/22 07:01:55;;;;;;;;;;;;;;;16.63;48.71;100363.91;5049304;28;1324;-44
2023/11/22 07:04:21;;;;;;;;;;;;;;;17.20;47.70;100374.53;5069754;28;1034;-48
2023/11/22 07:06:47;;;;;;;;;;;;;;;17.17;47.35;100364.13;5041448;28;1910;-50
2023/11/22 07:09:13;;;;;;;;;;;;;;;16.68;48.80;100369.38;5057567;28;1046;-48
2023/11/22 07:11:39;;;;;;;;;;;;;;;16.45;49.36;100367.31;5057133;28;1006;-49
2023/11/22 07:14:04;;;;;;;;;;;;;;;17.82;46.84;100376.69;5070004;28;1083;-56
2023/11/22 07:16:31;;;;;;;;;;;;;;;17.50;48.41;100375.34;5048404;28;1294;-48
2023/11/22 07:18:56;;;;;;;;;;;;;;;18.10;47.62;100384.09;5042601;28;1554;-45
2023/11/22 07:21:22;;;;;;;;;;;;;;;18.42;47.19;100382.59;5051848;28;872;-46
2023/11/22 07:23:47;;;;;;;;;;;;;;;18.69;47.17;100380.31;5054997;28;1049;-45
2023/11/22 07:26:14;;;;;;;;;;;;;;;18.87;47.08;100379.50;5069656;28;1902;-49
2023/11/22 07:28:40;;;;;;;;;;;;;;;19.09;46.98;100381.66;5063140;28;1062;-50
2023/11/22 07:31:07;;;;;;;;;;;;;;;19.21;46.78;100377.59;5059570;28;1329;-52
2023/11/22 07:33:32;;;;;;;;;;;;;;;19.38;46.75;100377.88;5042570;28;1055;-49
2023/11/22 07:35:58;;;;;;;;;;;;;;;19.51;46.80;100378.22;5055704;28;1302;-55
2023/11/22 07:38:24;;;;;;;;;;;;;;;19.63;46.58;100379.34;5073720;28;1096;-58
2023/11/22 07:40:50;;;;;;;;;;;;;;;19.71;46.63;100386.09;5063737;28;1320;-47
2023/11/22 07:43:16;;;;;;;;;;;;;;;19.79;46.44;100388.19;5071448;28;1146;-53
2023/11/22 07:45:43;;;;;;;;;;;;;;;19.92;46.51;100388.50;5051936;28;1969;-50
2023/11/22 07:48:11;;;;;;;;;;;;;;;20.03;46.31;100394.66;5071984;28;1145;-56
2023/11/22 07:50:43;;;;;;;;;;;;;;;20.15;46.30;100384.72;5036185;28;1363;-51
2023/11/22 07:53:12;;;;;;;;;;;;;;;20.27;46.19;100383.38;5043857;28;1387;-46
2023/11/22 07:55:38;;;;;;;;;;;;;;;20.40;46.20;100377.03;5059004;28;1305;-56
2023/11/22 07:58:06;;;;;;;;;;;;;;;20.45;46.36;100382.44;5055510;28;1399;-47
2023/11/22 08:00:33;;;;;;;;;;;;;;;20.57;46.27;100383.88;5049223;28;1360;-57
2023/11/22 08:03:01;;;;;;;;;;;;;;;20.72;46.07;100397.38;5065161;28;1466;-46
2023/11/22 08:05:27;;;;;;;;;;;;;;;20.81;46.10;100392.72;5051860;28;1898;-59
2023/11/22 08:07:53;;;;;;;;;;;;;;;20.92;46.24;100395.28;5054166;28;1556;-47
2023/11/22 08:10:19;;;;;;;;;;;;;;;21.02;46.20;100389.50;5051685;28;1311;-47
2023/11/22 08:12:49;;;;;;;;;;;;;;;21.11;46.07;100393.16;5051652;28;905;-50
2023/11/22 08:15:17;;;;;;;;;;;;;;;21.15;46.00;100398.84;5063348;28;1330;-46
2023/11/22 08:17:43;;;;;;;;;;;;;;;21.24;46.13;100393.38;5049538;28;1000;-47
2023/11/22 08:20:13;;;;;;;;;;;;;;;21.38;45.96;100391.38;5055281;28;1318;-47
2023/11/22 08:22:39;;;;;;;;;;;;;;;21.45;45.87;100396.47;5055951;28;1306;-52
2023/11/22 08:25:05;;;;;;;;;;;;;;;21.52;45.81;100397.66;5069270;28;1971;-55
2023/11/22 08:27:31;;;;;;;;;;;;;;;21.60;45.73;100392.50;5063152;28;1030;-54
2023/11/22 08:29:56;;;;;;;;;;;;;;;21.52;45.70;100386.59;5046608;28;1341;-45
2023/11/22 08:32:25;;;;;;;;;;;;;;;21.44;46.12;100401.16;5055083;28;1544;-51
2023/11/22 08:34:51;;;;;;;;;;;;;;;21.24;46.76;100405.28;5054268;28;1119;-52
2023/11/22 08:37:17;;;;;;;;;;;;;;;20.17;49.62;100418.38;5050396;28;1034;-44
2023/11/22 08:39:43;;;;;;;;;;;;;;;19.19;50.83;100421.19;5043291;28;1151;-45
2023/11/22 08:42:09;;;;;;;;;;;;;;;20.05;50.60;100418.06;5048400;28;1080;-47
2023/11/22 08:44:37;;;;;;;;;;;;;;;20.72;48.65;100430.53;5068557;28;1301;-48
2023/11/22 08:47:03;;;;;;;;;;;;;;;21.09;47.40;100442.41;5059823;28;1906;-49
2023/11/22 08:49:29;;;;;;;;;;;;;;;21.71;46.03;100440.91;5063581;28;1416;-57
2023/11/22 08:51:54;;;;;;;;;;;;;;;22.31;44.68;100449.81;5058521;28;1101;-59
2023/11/22 08:54:20;;;;;;;;;;;;;;;22.23;44.79;100448.63;5044766;28;1292;-52
2023/11/22 08:56:48;;;;;;;;;;;;;;;22.41;44.37;100444.00;5067079;28;1254;-46
2023/11/22 08:59:16;;;;;;;;;;;;;;;22.09;45.07;100440.47;5043280;28;900;-55
2023/11/22 09:01:45;;;;;;;;;;;;;;;20.96;46.22;100437.75;5055035;28;1039;-54
2023/11/22 09:04:11;;;;;;;;;;;;;;;20.21;46.53;100439.84;5035828;28;1100;-48
2023/11/22 09:06:36;;;;;;;;;;;;;;;20.17;48.07;100432.19;5034360;28;1918;-46
2023/11/22 09:09:03;;;;;;;;;;;;;;;20.28;49.52;100420.94;5030209;28;1554;-48
2023/11/22 09:11:28;;;;;;;;;;;;;;;20.27;49.76;100424.81;5044542;28;1148;-48
2023/11/22 09:13:56;;;;;;;;;;;;;;;20.34;50.30;100436.25;5053016;28;1374;-49
2023/11/22 09:16:24;;;;;;;;;;;;;;;20.63;49.73;100443.41;5049659;28;1311;-48
2023/11/22 09:18:50;;;;;;;;;;;;;;;20.68;49.57;100443.31;5055468;28;1028;-49
2023/11/22 09:21:16;;;;;;;;;;;;;;;20.84;49.20;100447.38;5048458;28;1082;-44
2023/11/22 09:23:42;;;;;;;;;;;;;;;21.03;48.70;100451.94;5051318;28;1373;-48
2023/11/22 09:26:08;;;;;;;;;;;;;;;20.85;49.39;100454.53;5050038;28;1910;-44
2023/11/22 09:28:33;;;;;;;;;;;;;;;20.67;49.95;100459.06;5070882;28;1077;-44
2023/11/22 09:31:05;;;;;;;;;;;;;;;20.60;50.35;100457.84;5061280;28;1103;-49
2023/11/22 09:33:31;;;;;;;;;;;;;;;21.03;49.37;100466.56;5064329;28;1321;-50
2023/11/22 09:35:58;;;;;;;;;;;;;;;21.28;48.61;100480.09;5059075;28;1140;-46
2023/11/22 09:38:23;;;;;;;;;;;;;;;21.06;49.39;100472.63;5049904;28;1330;-47
2023/11/22 09:40:49;;;;;;;;;;;;;;;20.86;49.83;100469.19;5049786;28;1294;-51
2023/11/22 09:43:18;;;;;;;;;;;;;;;20.90;49.68;100470.22;5060547;28;1057;-52
2023/11/22 09:45:43;;;;;;;;;;;;;;;20.81;49.98;100470.09;5065385;28;1906;-50
2023/11/22 09:48:19;;;;;;;;;;;;;;;20.81;49.97;100472.88;5062534;28;1317;-42
2023/11/22 09:50:47;;;;;;;;;;;;;;;20.82;49.86;100479.22;5048758;28;1146;-48
2023/11/22 09:53:45;;;;;;;;;;;;;;;20.96;49.94;100471.72;5056233;28;1519;-50
2023/11/22 09:56:13;;;;;;;;;;;;;;;21.49;48.16;100464.66;5002553;28;1382;-48
2023/11/22 09:58:39;;;;;;;;;;;;;;;18.69;54.77;100471.19;5057758;28;1206;-51
2023/11/22 10:01:05;;;;;;;;;;;;;;;15.91;59.93;100462.97;5067665;28;1050;-46
2023/11/22 10:03:31;;;;;;;;;;;;;;;15.96;61.62;100471.16;5062486;28;1312;-48
2023/11/22 10:05:57;;;;;;;;;;;;;;;17.34;55.51;100471.69;5058951;28;2000;-49
2023/11/22 10:08:23;;;;;;;;;;;;;;;17.50;54.08;100474.31;5075515;28;1139;-43
2023/11/22 10:10:51;;;;;;;;;;;;;;;17.67;53.18;100477.47;5060651;28;1431;-48
2023/11/22 10:13:20;;;;;;;;;;;;;;;17.49;53.24;100469.91;5063914;28;858;-49
2023/11/22 10:15:45;;;;;;;;;;;;;;;17.35;53.07;100470.59;5068474;28;1530;-47
2023/11/22 10:18:11;;;;;;;;;;;;;;;17.21;52.81;100477.84;5040897;28;1051;-45
2023/11/22 10:20:37;;;;;;;;;;;;;;;17.19;52.54;100480.03;5061800;28;918;-45
2023/11/22 10:23:03;;;;;;;;;;;;;;;17.04;52.91;100480.94;5058380;28;995;-50
2023/11/22 10:25:29;;;;;;;;;;;;;;;17.03;52.64;100488.38;5070945;28;1987;-46
2023/11/22 10:27:54;;;;;;;;;;;;;;;16.82;52.68;100492.31;5046505;28;1066;-47
2023/11/22 10:30:20;;;;;;;;;;;;;;;16.73;52.58;100487.41;5044117;28;1403;-45
2023/11/22 10:32:46;;;;;;;;;;;;;;;16.59;52.71;100491.84;5039856;28;2762;-44
2023/11/22 10:35:14;;;;;;;;;;;;;;;16.50;52.73;100479.81;4995489;28;10432;-48
2023/11/22 10:37:39;;;;;;;;;;;;;;;16.38;52.75;100478.22;4921983;28;95139;-46
2023/11/22 10:40:06;;;;;;;;;;;;;;;16.31;52.86;100490.56;4980094;28;1127;-47
2023/11/22 10:42:32;;;;;;;;;;;;;;;16.22;52.74;100490.31;4980147;28;1092;-46
2023/11/22 10:44:58;;;;;;;;;;;;;;;16.08;52.81;100488.16;4979816;28;1164;-44
2023/11/22 10:47:24;;;;;;;;;;;;;;;16.05;52.42;100491.44;4955555;29;1987;-43
2023/11/22 10:49:50;;;;;;;;;;;;;;;15.90;52.83;100478.56;4971738;28;1113;-49
2023/11/22 10:52:17;;;;;;;;;;;;;;;15.83;52.55;100494.47;4977489;28;1631;-47
2023/11/22 10:54:44;;;;;;;;;;;;;;;15.77;52.61;100490.09;4976330;28;1033;-47
2023/11/22 10:57:10;;;;;;;;;;;;;;;15.68;52.69;100500.78;4979880;28;1211;-43
2023/11/22 10:59:36;;;;;;;;;;;;;;;15.59;52.79;100499.69;4978409;28;1077;-43
2023/11/22 11:02:03;;;;;;;;;;;;;;;15.54;52.76;100488.69;4978325;28;1092;-46
2023/11/22 11:04:37;;;;;;;;;;;;;;;15.42;52.98;100493.63;4979799;28;1180;-47
2023/11/22 11:07:03;;;;;;;;;;;;;;;15.37;52.81;100495.25;4963361;28;1994;-46
2023/11/22 11:09:32;;;;;;;;;;;;;;;15.49;53.09;100494.19;4977848;28;1093;-46
2023/11/22 11:11:58;;;;;;;;;;;;;;;15.64;53.84;100485.97;4980451;28;1345;-43
2023/11/22 11:14:24;;;;;;;;;;;;;;;17.42;49.94;100503.25;4973838;28;1077;-49
2023/11/22 11:16:51;;;;;;;;;;;;;;;18.54;47.13;100516.28;4966070;28;1129;-49
2023/11/22 11:19:22;;;;;;;;;;;;;;;19.36;44.95;100523.47;4960196;28;1054;-45
2023/11/22 11:21:47;;;;;;;;;;;;;;;19.94;43.80;100515.97;4977671;28;915;-47
2023/11/22 11:24:14;;;;;;;;;;;;;;;20.46;42.46;100513.06;4976017;28;1093;-46
2023/11/22 11:26:39;;;;;;;;;;;;;;;20.85;42.52;100518.09;4966970;28;1903;-49
2023/11/22 11:29:06;;;;;;;;;;;;;;;17.28;52.47;100522.31;4975327;28;1246;-46
2023/11/22 11:31:36;;;;;;;;;;;;;;;15.94;56.61;100522.72;4977961;28;1092;-45
2023/11/22 11:34:04;;;;;;;;;;;;;;;16.67;53.89;100517.91;4978584;28;1128;-48
2023/11/22 11:36:31;;;;;;;;;;;;;;;16.51;53.46;100523.44;4977160;28;1053;-47
2023/11/22 11:38:58;;;;;;;;;;;;;;;16.40;53.19;100528.13;4972984;28;1135;-46
2023/11/22 11:41:30;;;;;;;;;;;;;;;16.25;53.06;100528.97;4971632;28;1038;-45
2023/11/22 11:43:56;;;;;;;;;;;;;;;16.16;53.04;100524.34;4968019;28;1113;-45
2023/11/22 11:46:25;;;;;;;;;;;;;;;15.96;53.30;100528.75;4959428;28;1902;-47
2023/11/22 11:48:51;;;;;;;;;;;;;;;15.90;52.84;100538.09;4970516;28;1030;-49
2023/11/22 11:51:21;;;;;;;;;;;;;;;15.81;52.86;100539.72;4978597;28;1153;-44
2023/11/22 11:53:46;;;;;;;;;;;;;;;15.68;53.01;100546.53;4979097;28;1089;-43
2023/11/22 11:56:12;;;;;;;;;;;;;;;15.62;52.89;100550.38;4978090;28;1064;-48
2023/11/22 11:58:38;;;;;;;;;;;;;;;15.52;52.92;100542.97;4978430;28;1171;-48
2023/11/22 12:01:09;;;;;;;;;;;;;;;15.40;52.85;100541.31;4976038;28;1235;-45
2023/11/22 12:03:38;;;;;;;;;;;;;;;15.33;53.09;100554.47;4978573;28;1060;-45
2023/11/22 12:06:07;;;;;;;;;;;;;;;15.23;52.91;100541.56;4960278;28;1910;-47
2023/11/22 12:08:36;;;;;;;;;;;;;;;15.18;52.91;100548.91;4977741;28;1151;-48
2023/11/22 12:11:02;;;;;;;;;;;;;;;15.11;52.91;100564.78;4977382;28;1551;-46
2023/11/22 12:13:28;;;;;;;;;;;;;;;15.09;52.77;100565.03;4977972;28;1406;-46
2023/11/22 12:15:54;;;;;;;;;;;;;;;15.02;52.95;100570.78;4977908;28;1128;-49
2023/11/22 12:18:19;;;;;;;;;;;;;;;14.79;54.42;100574.78;4971816;28;1040;-47
2023/11/22 12:20:58;;;;;;;;;;;;;;;15.01;53.66;100571.03;4970717;28;1176;-49
2023/11/22 12:23:24;;;;;;;;;;;;;;;14.92;53.59;100567.19;4965431;28;1253;-50
2023/11/22 12:25:53;;;;;;;;;;;;;;;14.91;53.37;100577.28;4958363;28;1977;-47
2023/11/22 12:28:19;;;;;;;;;;;;;;;14.86;53.66;100580.84;4975826;28;1498;-49
2023/11/22 12:30:45;;;;;;;;;;;;;;;14.99;54.11;100587.75;4976739;28;1127;-48
2023/11/22 12:33:15;;;;;;;;;;;;;;;14.88;54.45;100588.78;4978054;28;1178;-46
2023/11/22 12:35:43;;;;;;;;;;;;;;;14.87;54.03;100598.09;4977427;28;1138;-50
2023/11/22 12:38:09;;;;;;;;;;;;;;;14.72;54.02;100590.63;4977393;28;1295;-42
2023/11/22 12:40:35;;;;;;;;;;;;;;;14.83;53.85;100588.75;4977806;28;1275;-52
2023/11/22 12:43:01;;;;;;;;;;;;;;;14.90;54.13;100594.84;4977916;28;1322;-52
2023/11/22 12:45:28;;;;;;;;;;;;;;;14.91;54.07;100601.13;4977653;28;1902;-49
2023/11/22 12:48:00;;;;;;;;;;;;;;;14.83;54.50;100613.38;4973268;28;1429;-45
2023/11/22 12:50:29;;;;;;;;;;;;;;;14.68;54.50;100622.34;4969891;28;1200;-50
2023/11/22 12:52:55;;;;;;;;;;;;;;;14.59;54.26;100622.00;4977446;28;1033;-49